createdAt,value
2022-08-05T00:00:26.744Z,52.40
2022-08-05T00:02:56.577Z,52.80
2022-08-05T00:06:06.681Z,53.00
2022-08-05T00:08:32.881Z,53.00
2022-08-05T00:11:07.607Z,53.10
2022-08-05T00:13:52.925Z,53.60
2022-08-05T00:16:36.264Z,54.10
2022-08-05T00:19:10.421Z,54.10
2022-08-05T00:21:38.392Z,54.30
2022-08-05T00:24:16.181Z,54.60
2022-08-05T00:26:50.841Z,54.50
2022-08-05T00:29:25.813Z,54.70
2022-08-05T00:32:13.217Z,55.20
2022-08-05T00:35:04.582Z,55.20
2022-08-05T00:37:51.176Z,55.30
2022-08-05T00:40:27.268Z,55.40
2022-08-05T00:42:57.015Z,55.50
2022-08-05T00:45:37.876Z,55.70
2022-08-05T00:48:10.082Z,55.80
2022-08-05T00:50:38.405Z,55.80
2022-08-05T00:53:09.941Z,55.80
2022-08-05T00:55:54.824Z,55.90
2022-08-05T00:58:27.516Z,55.50
2022-08-05T01:00:55.744Z,55.50
2022-08-05T01:03:30.866Z,55.90
2022-08-05T01:06:01.522Z,55.90
2022-08-05T01:08:43.161Z,56.20
2022-08-05T01:11:24.459Z,56.30
2022-08-05T01:14:09.024Z,56.40
2022-08-05T01:16:41.389Z,56.50
2022-08-05T01:19:36.735Z,56.60
2022-08-05T01:22:31.854Z,56.80
2022-08-05T01:25:13.614Z,56.90
2022-08-05T01:27:56.231Z,56.90
2022-08-05T01:30:34.811Z,57.00
2022-08-05T01:33:04.717Z,57.00
2022-08-05T01:35:52.171Z,56.80
2022-08-05T01:38:27.319Z,56.90
2022-08-05T01:40:59.762Z,57.10
2022-08-05T01:43:30.836Z,57.10
2022-08-05T01:46:07.212Z,57.40
2022-08-05T01:58:10.215Z,58.70
2022-08-05T01:59:31.162Z,59.60
2022-08-05T02:06:33.443Z,60.80
2022-08-05T02:09:25.055Z,60.70
2022-08-05T02:12:18.129Z,60.80
2022-08-05T02:15:04.033Z,61.00
2022-08-05T02:18:27.584Z,61.20
2022-08-05T02:20:26.319Z,61.90
2022-08-05T02:22:57.034Z,62.80
2022-08-05T02:25:26.501Z,63.50
2022-08-05T02:28:08.875Z,63.60
2022-08-05T02:30:51.498Z,64.10
2022-08-05T02:33:24.451Z,65.00
2022-08-05T02:36:04.536Z,65.30
2022-08-05T02:38:35.339Z,65.80
2022-08-05T02:41:17.420Z,66.30
2022-08-05T02:44:02.616Z,66.90
2022-08-05T02:46:34.949Z,67.40
2022-08-05T02:49:06.021Z,68.00
2022-08-05T02:52:02.985Z,68.10
2022-08-05T02:54:36.465Z,68.00
2022-08-05T02:57:10.476Z,68.10
2022-08-05T02:59:55.219Z,68.10
2022-08-05T03:02:27.451Z,68.10
2022-08-05T03:04:58.736Z,68.10
2022-08-05T03:07:59.359Z,67.90
2022-08-05T03:10:22.102Z,67.80
2022-08-05T03:12:53.677Z,67.60
2022-08-05T03:15:23.772Z,67.40
2022-08-05T03:17:55.886Z,67.40
2022-08-05T03:20:30.308Z,67.30
2022-08-05T03:23:02.740Z,67.10
2022-08-05T03:26:04.281Z,66.90
2022-08-05T03:28:22.742Z,66.90
2022-08-05T03:30:51.056Z,66.80
2022-08-05T03:33:23.197Z,66.50
2022-08-05T03:36:02.391Z,66.20
2022-08-05T03:38:37.353Z,65.80
2022-08-05T03:41:10.984Z,65.60
2022-08-05T03:44:08.369Z,65.50
2022-08-05T03:46:29.971Z,65.60
2022-08-05T03:49:01.747Z,65.60
2022-08-05T03:52:38.873Z,65.50
2022-08-05T03:55:52.149Z,65.50
2022-08-05T03:57:16.574Z,65.80
2022-08-05T04:00:05.479Z,65.80
2022-08-05T04:02:37.506Z,66.00
2022-08-05T04:05:09.717Z,66.20
2022-08-05T04:07:58.531Z,66.30
2022-08-05T04:10:30.859Z,66.40
2022-08-05T04:13:04.187Z,66.60
2022-08-05T04:15:32.975Z,66.70
2022-08-05T04:18:07.402Z,66.70
2022-08-05T04:20:38.384Z,66.80
2022-08-05T04:23:12.453Z,66.90
2022-08-05T04:26:00.329Z,67.20
2022-08-05T04:28:30.840Z,67.00
2022-08-05T04:31:01.055Z,67.00
2022-08-05T04:33:54.427Z,67.00
2022-08-05T04:36:45.259Z,67.10
2022-08-05T04:39:07.008Z,66.90
2022-08-05T04:41:37.286Z,66.90
2022-08-05T04:44:08.883Z,66.60
2022-08-05T04:46:40.006Z,66.40
2022-08-05T04:49:14.493Z,66.20
2022-08-05T04:51:43.656Z,66.00
2022-08-05T04:54:14.810Z,66.00
2022-08-05T04:56:43.565Z,65.90
2022-08-05T04:59:21.996Z,65.80
2022-08-05T05:02:07.569Z,65.80
2022-08-05T05:04:49.863Z,65.80
2022-08-05T05:07:18.621Z,65.90
2022-08-05T05:09:58.540Z,66.00
2022-08-05T05:12:27.536Z,66.20
2022-08-05T05:14:55.977Z,66.30
2022-08-05T05:17:55.488Z,66.30
2022-08-05T05:20:17.493Z,66.30
2022-08-05T05:22:48.306Z,66.30
2022-08-05T05:25:17.746Z,66.20
2022-08-05T05:31:35.978Z,65.90
2022-08-05T06:06:18.478Z,65.90
2022-08-05T06:36:19.602Z,64.90
2022-08-05T06:50:00.058Z,64.80
2022-08-05T06:52:58.446Z,64.80
2022-08-05T06:55:28.239Z,64.90
2022-08-05T06:58:19.786Z,65.20
2022-08-05T07:00:52.292Z,65.30
2022-08-05T07:03:20.267Z,65.50
2022-08-05T07:05:55.964Z,65.60
2022-08-05T07:08:25.197Z,65.70
2022-08-05T07:10:57.835Z,65.80
2022-08-05T07:13:58.226Z,65.70
2022-08-05T07:17:59.948Z,65.60
2022-08-05T07:20:31.481Z,65.50
2022-08-05T07:22:29.078Z,65.40
2022-08-05T07:24:58.888Z,65.30
2022-08-05T07:28:02.321Z,65.40
2022-08-05T07:30:24.160Z,65.20
2022-08-05T07:32:56.340Z,65.30
2022-08-05T07:36:03.458Z,65.30
2022-08-05T07:38:32.942Z,65.20
2022-08-05T07:41:16.621Z,64.80
2022-08-05T07:43:50.995Z,64.40
2022-08-05T07:46:25.412Z,64.00
2022-08-05T07:49:02.945Z,63.90
2022-08-05T07:51:40.577Z,63.70
2022-08-05T07:54:16.853Z,63.60
2022-08-05T07:57:02.021Z,63.50
2022-08-05T07:59:40.305Z,63.40
2022-08-05T08:02:15.502Z,63.50
2022-08-05T08:04:46.416Z,63.60
2022-08-05T08:07:15.404Z,63.60
2022-08-05T08:09:45.346Z,63.30
2022-08-05T08:12:35.036Z,63.10
2022-08-05T08:15:15.717Z,63.10
2022-08-05T08:17:49.694Z,62.60
2022-08-05T08:20:44.466Z,62.40
2022-08-05T08:24:00.298Z,62.40
2022-08-05T08:26:00.952Z,61.60
2022-08-05T08:28:35.791Z,61.60
2022-08-05T08:31:07.322Z,61.00
2022-08-05T08:33:38.091Z,60.20
2022-08-05T08:36:38.670Z,60.10
2022-08-05T08:38:56.981Z,60.00
2022-08-05T08:41:51.134Z,59.70
2022-08-05T08:45:16.608Z,59.60
2022-08-05T08:47:46.853Z,59.30
2022-08-05T08:50:06.011Z,59.20
2022-08-05T08:52:51.721Z,59.00
2022-08-05T08:56:02.773Z,58.80
2022-08-05T08:58:10.025Z,58.90
2022-08-05T09:00:41.312Z,57.80
2022-08-05T09:03:16.167Z,57.30
2022-08-05T09:06:08.556Z,57.20
2022-08-05T09:08:40.043Z,56.60
2022-08-05T09:11:08.700Z,56.80
2022-08-05T09:14:09.461Z,56.80
2022-08-05T09:16:28.249Z,57.40
2022-08-05T09:18:59.431Z,57.60
2022-08-05T09:22:22.593Z,57.70
2022-08-05T09:24:16.371Z,57.70
2022-08-05T09:26:48.592Z,58.20
2022-08-05T09:29:19.964Z,58.40
2022-08-05T09:32:41.065Z,58.20
2022-08-05T09:34:52.710Z,57.90
2022-08-05T09:38:17.471Z,57.70
2022-08-05T09:40:09.869Z,57.40
2022-08-05T09:42:42.246Z,56.90
2022-08-05T09:45:17.420Z,56.40
2022-08-05T09:48:19.916Z,55.90
2022-08-05T09:50:54.197Z,55.20
2022-08-05T09:53:53.225Z,54.60
2022-08-05T09:56:13.607Z,54.50
2022-08-05T09:58:42.173Z,53.90
2022-08-05T10:01:15.062Z,53.80
2022-08-05T10:03:59.139Z,53.50
2022-08-05T10:06:29.178Z,54.00
2022-08-05T10:09:24.945Z,53.60
2022-08-05T10:11:56.923Z,53.20
2022-08-05T10:14:27.455Z,53.00
2022-08-05T10:16:58.882Z,52.60
2022-08-05T10:19:31.894Z,51.90
2022-08-05T10:22:29.549Z,52.10
2022-08-05T10:24:58.346Z,52.50
2022-08-05T10:28:09.255Z,52.70
2022-08-05T10:31:19.912Z,52.60
2022-08-05T10:33:03.500Z,52.60
2022-08-05T10:35:33.806Z,52.80
2022-08-05T10:38:11.928Z,52.40
2022-08-05T10:40:44.927Z,52.40
2022-08-05T10:43:16.726Z,52.20
2022-08-05T10:46:08.964Z,51.90
2022-08-05T10:48:52.782Z,51.10
2022-08-05T10:51:28.571Z,50.50
2022-08-05T10:54:23.093Z,50.10
2022-08-05T10:56:53.458Z,49.50
2022-08-05T11:00:03.327Z,49.50
2022-08-05T11:02:37.490Z,49.70
2022-08-05T11:05:08.325Z,49.70
2022-08-05T11:08:17.107Z,49.70
2022-08-05T11:11:00.976Z,49.60
2022-08-05T11:13:58.056Z,49.10
2022-08-05T11:16:33.688Z,48.90
2022-08-05T11:20:10.501Z,49.40
2022-08-05T11:22:34.338Z,49.70
2022-08-05T11:26:04.383Z,49.40
2022-08-05T11:28:30.470Z,49.20
2022-08-05T11:31:54.172Z,49.30
2022-08-05T11:34:22.500Z,49.80
2022-08-05T11:37:06.194Z,48.20
2022-08-05T11:40:03.171Z,48.20
2022-08-05T11:42:40.133Z,48.00
2022-08-05T11:45:26.817Z,48.00
2022-08-05T11:47:58.646Z,47.70
2022-08-05T11:50:26.829Z,47.70
2022-08-05T11:52:57.884Z,47.70
2022-08-05T11:55:31.606Z,47.40
2022-08-05T11:58:09.556Z,47.00
2022-08-05T12:00:41.417Z,47.30
2022-08-05T12:03:29.328Z,47.10
2022-08-05T12:06:02.153Z,47.30
2022-08-05T12:08:32.788Z,47.50
2022-08-05T12:11:04.105Z,47.20
2022-08-05T12:13:48.872Z,48.00
2022-08-05T12:16:25.315Z,48.80
2022-08-05T12:18:55.418Z,49.80
2022-08-05T12:21:31.837Z,50.40
2022-08-05T12:24:04.381Z,51.00
2022-08-05T12:26:33.636Z,51.40
2022-08-05T12:29:03.327Z,51.70
2022-08-05T12:31:45.884Z,51.40
2022-08-05T12:34:23.738Z,51.30
2022-08-05T12:36:54.466Z,51.40
2022-08-05T12:39:23.700Z,51.70
2022-08-05T12:41:58.976Z,51.60
2022-08-05T12:44:33.169Z,51.80
2022-08-05T12:47:02.246Z,52.20
2022-08-05T12:50:02.312Z,52.20
2022-08-05T12:52:38.502Z,52.20
2022-08-05T12:55:22.345Z,52.70
2022-08-05T12:58:49.373Z,53.00
2022-08-05T13:02:03.861Z,53.50
2022-08-05T13:03:33.008Z,53.80
2022-08-05T13:06:02.775Z,53.90
2022-08-05T13:08:32.300Z,54.30
2022-08-05T13:11:02.141Z,54.40
2022-08-05T13:14:05.024Z,55.20
2022-08-05T13:16:20.310Z,56.00
2022-08-05T13:18:52.137Z,56.60
2022-08-05T13:21:27.998Z,56.80
2022-08-05T13:24:06.251Z,56.90
2022-08-05T13:26:37.016Z,57.00
2022-08-05T13:29:05.513Z,57.20
2022-08-05T13:32:04.267Z,57.40
2022-08-05T13:34:27.714Z,57.40
2022-08-05T13:37:00.603Z,57.30
2022-08-05T13:40:16.297Z,56.80
2022-08-05T13:42:17.368Z,56.20
2022-08-05T13:44:46.939Z,56.10
2022-08-05T13:47:35.258Z,56.10
2022-08-05T13:50:04.706Z,56.30
2022-08-05T13:52:35.960Z,56.60
2022-08-05T13:55:07.853Z,56.50
2022-08-05T13:57:51.031Z,56.60
2022-08-05T14:00:26.975Z,56.70
2022-08-05T14:02:57.331Z,56.70
2022-08-05T14:05:48.188Z,56.60
2022-08-05T14:08:20.763Z,56.60
2022-08-05T14:11:08.115Z,56.70
2022-08-05T14:13:54.768Z,56.80
2022-08-05T14:16:28.160Z,57.20
2022-08-05T14:18:56.240Z,57.40
2022-08-05T14:22:09.005Z,57.60
2022-08-05T14:24:19.416Z,57.60
2022-08-05T14:27:15.597Z,57.60
2022-08-05T14:29:40.524Z,57.60
2022-08-05T14:32:15.901Z,56.90
2022-08-05T14:34:54.792Z,56.30
2022-08-05T14:37:42.197Z,56.20
2022-08-05T14:40:17.135Z,56.00
2022-08-05T14:42:46.840Z,55.80
2022-08-05T14:45:16.891Z,55.60
2022-08-05T14:48:04.146Z,55.20
2022-08-05T14:50:36.066Z,55.00
2022-08-05T14:53:08.814Z,54.50
2022-08-05T14:55:39.834Z,54.30
2022-08-05T14:58:11.041Z,53.80
2022-08-05T15:00:59.360Z,53.50
2022-08-05T15:03:33.857Z,52.90
2022-08-05T15:06:14.806Z,52.90
2022-08-05T15:08:59.673Z,52.50
2022-08-05T15:11:51.731Z,52.60
2022-08-05T15:14:35.017Z,52.60
2022-08-05T15:17:09.885Z,52.40
2022-08-05T15:19:57.226Z,52.50
2022-08-05T15:22:27.162Z,53.10
2022-08-05T15:24:55.965Z,52.30
2022-08-05T15:27:25.961Z,52.20
2022-08-05T15:29:56.754Z,51.80
2022-08-05T15:32:27.473Z,51.70
2022-08-05T15:34:58.010Z,51.60
2022-08-05T15:38:33.345Z,51.30
2022-08-05T15:40:58.490Z,51.20
2022-08-05T15:43:10.812Z,51.20
2022-08-05T15:46:00.584Z,51.20
2022-08-05T15:48:29.962Z,50.70
2022-08-05T15:51:03.639Z,49.90
2022-08-05T15:53:51.312Z,49.60
2022-08-05T15:56:20.175Z,49.60
2022-08-05T15:58:49.872Z,48.70
2022-08-05T16:01:30.039Z,48.80
2022-08-05T16:04:10.400Z,48.70
2022-08-05T16:06:41.445Z,48.00
2022-08-05T16:09:11.517Z,47.80
2022-08-05T16:11:43.646Z,47.10
2022-08-05T16:14:17.117Z,47.10
2022-08-05T16:16:46.135Z,46.50
2022-08-05T16:19:25.382Z,46.30
2022-08-05T16:22:34.980Z,45.90
2022-08-05T16:29:50.013Z,45.70
2022-08-05T16:40:06.409Z,45.60
2022-08-05T16:42:30.192Z,45.90
2022-08-05T16:44:58.605Z,45.90
2022-08-05T16:47:35.759Z,46.00
2022-08-05T16:50:06.319Z,45.90
2022-08-05T16:52:34.367Z,45.60
2022-08-05T16:55:04.345Z,45.60
2022-08-05T16:57:53.601Z,45.70
2022-08-05T17:00:25.775Z,45.80
2022-08-05T17:03:03.552Z,46.00
2022-08-05T17:05:33.750Z,45.60
2022-08-05T17:08:05.987Z,45.80
2022-08-05T17:10:37.347Z,45.60
2022-08-05T17:13:05.865Z,45.90
2022-08-05T17:15:49.013Z,45.90
2022-08-05T17:18:21.167Z,46.00
2022-08-05T17:20:49.300Z,46.00
2022-08-05T17:24:03.155Z,46.20
2022-08-05T17:26:07.192Z,46.30
2022-08-05T17:28:36.822Z,46.30
2022-08-05T17:31:08.380Z,46.10
2022-08-05T17:33:52.348Z,45.80
2022-08-05T17:36:33.722Z,45.80
2022-08-05T17:39:06.516Z,45.80
2022-08-05T17:42:17.809Z,45.90
2022-08-05T17:44:42.283Z,46.00
2022-08-05T17:47:22.255Z,45.80
2022-08-05T17:49:52.039Z,45.90
2022-08-05T17:52:53.196Z,46.00
2022-08-05T17:55:27.192Z,45.60
2022-08-05T17:58:09.276Z,45.90
2022-08-05T18:00:45.157Z,46.00
2022-08-05T18:03:39.237Z,46.80
2022-08-05T18:06:11.029Z,46.20
2022-08-05T18:08:44.789Z,46.20
2022-08-05T18:11:24.349Z,46.10
2022-08-05T18:14:04.504Z,46.00
2022-08-05T18:16:34.889Z,46.10
2022-08-05T18:19:03.367Z,46.10
2022-08-05T18:22:09.438Z,46.20
2022-08-05T18:24:19.726Z,46.20
2022-08-05T18:26:49.236Z,46.40
2022-08-05T18:29:40.493Z,46.60
2022-08-05T18:32:12.652Z,46.90
2022-08-05T18:34:41.505Z,47.20
2022-08-05T18:37:12.646Z,47.40
2022-08-05T18:40:31.096Z,47.60
2022-08-05T18:42:51.999Z,47.80
2022-08-05T18:45:21.772Z,48.10
2022-08-05T18:47:56.662Z,48.30
2022-08-05T18:50:46.380Z,48.40
2022-08-05T18:53:20.537Z,48.60
2022-08-05T18:55:50.947Z,48.80
2022-08-05T18:58:22.166Z,48.90
2022-08-05T19:00:58.145Z,49.10
2022-08-05T19:03:55.718Z,49.40
2022-08-05T19:06:21.710Z,49.50
2022-08-05T19:08:50.609Z,49.60
2022-08-05T19:11:21.938Z,49.90
2022-08-05T19:14:01.825Z,49.90
2022-08-05T19:16:51.625Z,50.00
2022-08-05T19:19:29.771Z,50.20
2022-08-05T19:21:58.720Z,50.30
2022-08-05T19:24:34.357Z,50.30
2022-08-05T19:27:03.935Z,50.40
2022-08-05T19:29:36.263Z,50.50
2022-08-05T19:32:08.579Z,50.70
2022-08-05T19:34:39.789Z,50.80
2022-08-05T19:37:10.156Z,50.90
2022-08-05T19:39:45.500Z,51.00
2022-08-05T19:42:19.648Z,51.00
2022-08-05T19:45:07.817Z,51.20
2022-08-05T19:47:37.976Z,51.40
2022-08-05T19:50:07.847Z,51.50
2022-08-05T19:52:43.162Z,51.50
2022-08-05T19:56:14.452Z,51.80
2022-08-05T19:58:14.386Z,51.90
2022-08-05T20:00:51.992Z,52.10
2022-08-05T20:03:21.916Z,52.20
2022-08-05T20:05:51.681Z,52.40
2022-08-05T20:08:20.252Z,52.50
2022-08-05T20:10:49.567Z,52.60
2022-08-05T20:13:18.161Z,52.70
2022-08-05T20:15:59.675Z,52.90
2022-08-05T20:18:32.861Z,53.10
2022-08-05T20:21:04.700Z,53.50
2022-08-05T20:23:39.525Z,53.30
2022-08-05T20:26:18.159Z,53.40
2022-08-05T20:28:56.920Z,53.60
2022-08-05T20:31:36.785Z,53.80
2022-08-05T20:34:15.214Z,54.00
2022-08-05T20:36:43.823Z,54.20
2022-08-05T20:39:13.350Z,54.40
2022-08-05T20:41:44.347Z,54.50
2022-08-05T20:44:19.161Z,54.60
2022-08-05T20:46:58.326Z,54.70
2022-08-05T20:49:27.726Z,55.00
2022-08-05T20:51:57.507Z,55.10
2022-08-05T20:54:59.028Z,55.40
2022-08-05T20:57:15.097Z,55.80
2022-08-05T21:00:21.224Z,56.10
2022-08-05T21:02:57.124Z,56.40
2022-08-05T21:05:28.558Z,56.70
2022-08-05T21:08:15.551Z,56.90
2022-08-05T21:10:48.995Z,57.00
2022-08-05T21:13:26.211Z,57.10
2022-08-05T21:16:05.643Z,57.40
2022-08-05T21:18:34.080Z,57.40
2022-08-05T21:21:09.838Z,57.50
2022-08-05T21:23:40.114Z,57.50
2022-08-05T21:26:14.325Z,57.40
2022-08-05T21:28:50.611Z,57.40
2022-08-05T21:31:19.225Z,57.50
2022-08-05T21:33:49.570Z,58.30
2022-08-05T21:36:29.845Z,57.60
2022-08-05T21:38:58.518Z,57.60
2022-08-05T21:41:32.904Z,57.50
2022-08-05T21:44:04.373Z,57.50
2022-08-05T21:46:34.660Z,57.40
2022-08-05T21:49:04.659Z,57.40
2022-08-05T21:52:15.688Z,57.30
2022-08-05T21:54:30.792Z,57.40
2022-08-05T22:00:03.984Z,57.60
2022-08-05T22:02:34.607Z,57.80
2022-08-05T22:05:04.384Z,58.10
2022-08-05T22:07:40.490Z,58.30
2022-08-05T22:10:26.643Z,58.30
2022-08-05T22:12:55.468Z,58.30
2022-08-05T22:16:00.341Z,58.50
2022-08-05T22:18:14.480Z,58.50
2022-08-05T22:20:44.187Z,58.70
2022-08-05T22:24:02.056Z,58.80
2022-08-05T22:26:36.941Z,58.90
2022-08-05T22:29:05.076Z,59.20
2022-08-05T22:31:44.532Z,59.30
2022-08-05T22:34:25.564Z,59.50
2022-08-05T22:36:58.463Z,59.70
2022-08-05T22:39:33.375Z,59.70
2022-08-05T22:42:09.279Z,59.50
2022-08-05T22:44:40.101Z,59.50
2022-08-05T22:47:08.175Z,59.40
2022-08-05T22:50:17.972Z,59.30
2022-08-05T22:52:32.550Z,59.00
2022-08-05T22:55:04.240Z,59.10
2022-08-05T22:57:49.440Z,59.20
2022-08-05T23:00:21.203Z,59.50
2022-08-05T23:02:49.659Z,59.70
2022-08-05T23:05:18.640Z,59.90
2022-08-05T23:07:49.523Z,60.00
2022-08-05T23:10:23.580Z,60.10
2022-08-05T23:12:54.654Z,60.20
2022-08-05T23:15:26.970Z,60.20
2022-08-05T23:18:00.485Z,60.20
2022-08-05T23:20:30.950Z,60.10
2022-08-05T23:22:59.044Z,60.00
2022-08-05T23:25:55.006Z,60.10
2022-08-05T23:28:18.207Z,60.10
2022-08-05T23:30:53.298Z,60.20
2022-08-05T23:33:26.515Z,60.10
2022-08-05T23:36:10.495Z,60.00
2022-08-05T23:38:39.989Z,59.90
2022-08-05T23:41:11.514Z,60.00
2022-08-05T23:44:06.297Z,60.20
2022-08-05T23:46:30.004Z,60.20
2022-08-05T23:49:00.895Z,60.10
2022-08-05T23:51:48.399Z,60.00
2022-08-05T23:54:25.992Z,60.00
2022-08-05T23:57:03.315Z,60.00
